Time;durP1;ratioP1;P1;durP2;ratioP2;P2;SDS_P1;SDS_P2;PMS_P1;PMS_P2;Temp;Humidity;BMP_temperature;BMP_pressure;BME280_temperature;BME280_humidity;BME280_pressure;Samples;Min_cycle;Max_cycle;Signal;HPM_P1;HPM_P2
2023/10/11 00:02:57;;;;;;;5.63;5.22;;;;;;;14.02;100.00;100864.91;6030002;23;20021;-72
2023/10/11 00:05:24;;;;;;;5.85;5.45;;;;;;;14.04;100.00;100860.38;6055528;23;20082;-73
2023/10/11 00:07:57;;;;;;;5.25;4.95;;;;;;;13.90;100.00;100838.34;6026551;23;20026;-73
2023/10/11 00:10:24;;;;;;;8.63;5.07;;;;;;;13.57;100.00;100775.41;6060126;23;20037;-72
2023/10/11 00:12:50;;;;;;;5.65;5.25;;;;;;;13.62;100.00;100781.22;6050598;23;20018;-73
2023/10/11 00:15:17;;;;;;;8.75;5.55;;;;;;;13.81;100.00;100812.56;6023496;23;20493;-72
2023/10/11 00:17:46;;;;;;;5.43;5.03;;;;;;;13.60;100.00;100785.75;6057121;23;20254;-74
2023/10/11 00:20:28;;;;;;;5.82;5.30;;;;;;;13.55;100.00;100785.19;6000675;23;20060;-72
2023/10/11 00:22:55;;;;;;;6.15;5.65;;;;;;;13.72;100.00;100836.88;6049526;23;20085;-72
2023/10/11 00:25:25;;;;;;;6.30;5.80;;;;;;;13.33;100.00;100789.19;6022370;23;20015;-72
2023/10/11 00:27:53;;;;;;;7.63;6.32;;;;;;;13.45;100.00;100831.53;6055956;23;20026;-71
2023/10/11 00:30:21;;;;;;;6.47;5.93;;;;;;;13.77;100.00;100876.97;6017097;23;20040;-73
2023/10/11 00:32:47;;;;;;;7.32;5.90;;;;;;;13.72;100.00;100873.81;6048177;23;20015;-72
2023/10/11 00:35:24;;;;;;;5.47;5.10;;;;;;;13.45;100.00;100860.53;6027384;23;20235;-72
2023/10/11 00:37:52;;;;;;;6.25;5.75;;;;;;;13.65;100.00;100896.22;6049695;23;20456;-73
2023/10/11 00:40:25;;;;;;;5.57;5.10;;;;;;;13.46;100.00;100876.25;6023657;23;20023;-73
2023/10/11 00:42:52;;;;;;;6.30;5.80;;;;;;;13.45;100.00;100887.75;6053879;23;20030;-73
2023/10/11 00:45:22;;;;;;;6.35;5.75;;;;;;;13.59;100.00;100922.97;6053968;23;20030;-73
2023/10/11 00:47:51;;;;;;;7.75;5.65;;;;;;;13.57;100.00;100931.84;6019334;23;20113;-73
2023/10/11 00:50:21;;;;;;;6.03;5.43;;;;;;;13.56;100.00;100938.03;6028987;23;20186;-73
2023/10/11 00:52:48;;;;;;;7.95;5.25;;;;;;;13.02;100.00;100850.78;6032460;23;20022;-72
2023/10/11 00:55:24;;;;;;;5.60;5.20;;;;;;;13.06;100.00;100862.84;6051925;23;20358;-74
2023/10/11 00:57:53;;;;;;;6.55;6.00;;;;;;;13.29;100.00;100921.22;6048946;23;20050;-74
2023/10/11 01:00:23;;;;;;;6.05;5.55;;;;;;;13.30;100.00;100931.69;6050411;23;20027;-74
2023/10/11 01:02:52;;;;;;;5.70;5.30;;;;;;;13.06;100.00;100889.19;6028314;23;20037;-74
2023/10/11 01:05:19;;;;;;;5.53;5.13;;;;;;;12.50;100.00;100801.22;6036860;23;20034;-73
2023/10/11 01:07:46;;;;;;;5.53;5.13;;;;;;;13.43;100.00;100942.38;6023957;23;20023;-73
2023/10/11 01:10:13;;;;;;;5.88;5.47;;;;;;;13.33;100.00;100934.16;6054134;23;20030;-73
2023/10/11 01:12:39;;;;;;;5.93;5.43;;;;;;;13.31;100.00;100928.13;6047686;23;20029;-73
2023/10/11 01:15:11;;;;;;;5.90;5.40;;;;;;;13.38;100.00;100914.59;6023858;23;20137;-74
2023/10/11 01:17:39;;;;;;;5.25;4.85;;;;;;;13.49;100.00;100912.13;6055214;23;20522;-74
2023/10/11 01:20:26;;;;;;;6.07;5.60;;;;;;;13.53;100.00;100898.69;6023159;23;20472;-73
2023/10/11 01:22:52;;;;;;;5.50;5.18;;;;;;;13.60;100.00;100874.56;6025260;23;20081;-73
2023/10/11 01:25:19;;;;;;;7.50;6.60;;;;;;;13.61;100.00;100848.13;6046148;23;20352;-73
2023/10/11 01:27:47;;;;;;;5.70;5.20;;;;;;;13.68;100.00;100823.03;6054648;23;20025;-74
2023/10/11 01:30:14;;;;;;;5.70;5.22;;;;;;;13.64;100.00;100794.31;6017903;23;20030;-73
2023/10/11 01:32:44;;;;;;;6.18;5.57;;;;;;;13.39;100.00;100753.69;6023211;23;20026;-74
2023/10/11 01:35:20;;;;;;;6.15;5.55;;;;;;;13.28;100.00;100712.16;6036016;23;20121;-73
2023/10/11 01:37:48;;;;;;;6.00;5.65;;;;;;;13.53;100.00;100751.03;6021170;23;20086;-72
2023/10/11 01:40:21;;;;;;;6.53;5.38;;;;;;;13.18;100.00;100696.06;6057225;23;20516;-72
2023/10/11 01:42:51;;;;;;;;;;;;;;;13.57;100.00;100755.16;6047855;23;20018;-73
2023/10/11 01:45:19;;;;;;;7.45;5.68;;;;;;;13.57;100.00;100768.34;6052390;23;19913;-73
2023/10/11 01:47:46;;;;;;;7.57;5.32;;;;;;;13.56;100.00;100778.97;6022657;23;20035;-73
2023/10/11 01:50:14;;;;;;;5.53;5.13;;;;;;;13.05;100.00;100694.31;6044830;23;20030;-72
2023/10/11 01:52:40;;;;;;;5.82;5.40;;;;;;;13.62;100.00;100777.75;6027115;23;20027;-72
2023/10/11 01:55:10;;;;;;;6.25;5.45;;;;;;;13.64;100.00;100770.59;6050601;23;20034;-73
2023/10/11 01:57:39;;;;;;;5.60;5.20;;;;;;;13.62;100.00;100748.75;6003779;23;20030;-74
2023/10/11 02:00:13;;;;;;;7.45;6.75;;;;;;;13.69;100.00;100752.66;6037480;23;20279;-73
2023/10/11 02:05:39;;;;;;;6.28;5.65;;;;;;;13.70;100.00;100778.94;6027519;23;20453;-72
2023/10/11 02:08:05;;;;;;;6.63;6.05;;;;;;;13.25;100.00;100715.00;6018965;23;20073;-73
2023/10/11 02:10:36;;;;;;;6.53;5.93;;;;;;;13.64;100.00;100786.41;6052511;23;20050;-73
2023/10/11 02:13:09;;;;;;;10.30;5.90;;;;;;;13.51;100.00;100776.66;6020146;23;20030;-73
2023/10/11 02:15:37;;;;;;;6.07;5.57;;;;;;;13.20;100.00;100726.75;6050301;23;20022;-73
2023/10/11 02:18:08;;;;;;;6.35;5.88;;;;;;;13.71;100.00;100790.34;6012861;23;20018;-74
2023/10/11 02:20:35;;;;;;;9.40;5.50;;;;;;;13.73;100.00;100776.13;6030918;23;20437;-73
2023/10/11 02:23:02;;;;;;;12.05;6.10;;;;;;;13.42;100.00;100708.69;6053234;23;20097;-73
2023/10/11 02:25:28;;;;;;;6.80;6.10;;;;;;;13.32;100.00;100697.88;6022442;23;20042;-74
2023/10/11 02:27:55;;;;;;;8.75;6.78;;;;;;;13.33;100.00;100699.56;6045749;23;20026;-73
2023/10/11 02:30:24;;;;;;;6.80;5.75;;;;;;;13.68;100.00;100751.81;6021438;23;20027;-74
2023/10/11 02:32:53;;;;;;;5.95;5.45;;;;;;;13.71;100.00;100763.97;6042729;23;20483;-73
2023/10/11 02:35:20;;;;;;;5.90;5.40;;;;;;;13.24;100.00;100699.28;6026190;23;20402;-73
2023/10/11 02:37:46;;;;;;;5.70;5.30;;;;;;;13.32;100.00;100715.47;6043858;23;20082;-72
2023/10/11 02:40:16;;;;;;;6.57;5.20;;;;;;;13.71;100.00;100778.03;6001642;23;20363;-73
2023/10/11 02:42:49;;;;;;;6.20;5.60;;;;;;;13.74;100.00;100771.69;6044758;23;20050;-73
2023/10/11 02:45:19;;;;;;;6.45;5.10;;;;;;;13.69;100.00;100747.38;6031754;23;20277;-73
2023/10/11 02:47:46;;;;;;;6.20;5.72;;;;;;;13.83;100.00;100771.09;6054413;23;20026;-73
2023/10/11 02:50:12;;;;;;;6.32;5.82;;;;;;;13.88;100.00;100771.63;6027681;23;20023;-74
2023/10/11 02:52:40;;;;;;;6.03;5.45;;;;;;;13.86;100.00;100755.06;6061273;23;20382;-74
2023/10/11 02:55:17;;;;;;;6.45;5.78;;;;;;;13.94;100.00;100765.13;6030108;23;20162;-73
2023/10/11 02:57:45;;;;;;;6.97;5.75;;;;;;;13.60;100.00;100729.53;6055286;23;20018;-74
2023/10/11 03:00:22;;;;;;;5.75;5.10;;;;;;;13.92;100.00;100762.56;6049701;23;20010;-72
2023/10/11 03:02:55;;;;;;;6.78;5.90;;;;;;;13.64;100.00;100704.66;6024210;23;20473;-72
2023/10/11 03:05:29;;;;;;;5.88;5.40;;;;;;;13.91;100.00;100744.19;6048776;23;20098;-72
2023/10/11 03:10:53;;;;;;;7.10;5.72;;;;;;;13.93;100.00;100745.81;6054014;23;20141;-73
2023/10/11 03:13:24;;;;;;;14.63;5.68;;;;;;;13.82;100.00;100719.28;6045966;23;20717;-73
2023/10/11 03:15:55;;;;;;;8.50;5.93;;;;;;;13.92;100.00;100733.56;5999127;23;20078;-72
2023/10/11 03:18:25;;;;;;;5.80;5.30;;;;;;;13.35;100.00;100652.03;6041078;23;20123;-73
2023/10/11 03:21:39;;;;;;;5.15;4.82;;;;;;;13.84;100.00;100725.31;6025775;23;20481;-72
2023/10/11 03:23:47;;;;;;;5.75;5.28;;;;;;;13.88;100.00;100736.50;6042802;23;20548;-73
2023/10/11 03:29:17;;;;;;;6.15;5.65;;;;;;;13.90;100.00;100722.25;6028487;23;20594;-73
2023/10/11 03:31:45;;;;;;;13.48;5.72;;;;;;;13.75;100.00;100687.19;6042532;23;20109;-72
2023/10/11 03:34:11;;;;;;;8.82;5.20;;;;;;;13.60;100.00;100669.72;6042479;23;20032;-73
2023/10/11 03:36:51;;;;;;;6.60;5.50;;;;;;;13.73;100.00;100699.63;6025731;23;20621;-73
2023/10/11 03:42:07;;;;;;;6.72;6.18;;;;;;;13.32;100.00;100704.94;6015630;23;20027;-72
2023/10/11 03:44:35;;;;;;;5.25;4.95;;;;;;;13.27;100.00;100733.31;6050835;23;20022;-73
2023/10/11 03:47:06;;;;;;;5.88;5.47;;;;;;;13.26;100.00;100760.63;6026395;23;20082;-73
2023/10/11 03:49:51;;;;;;;7.78;6.30;;;;;;;12.84;100.00;100713.13;6048588;23;20469;-73
2023/10/11 03:52:30;;;;;;;5.85;5.45;;;;;;;12.95;100.00;100765.19;6023995;23;20030;-72
2023/10/11 03:55:10;;;;;;;6.75;5.28;;;;;;;12.84;100.00;100780.78;6054110;23;20213;-72
2023/10/11 03:57:41;;;;;;;5.75;5.28;;;;;;;12.82;100.00;100795.81;6022545;23;20046;-73
2023/10/11 04:02:48;;;;;;;6.50;6.00;;;;;;;12.54;100.00;100814.09;6024074;23;20115;-72
2023/10/11 04:05:15;;;;;;;6.32;5.82;;;;;;;12.13;100.00;100759.47;6048232;23;20047;-73
2023/10/11 04:07:41;;;;;;;5.63;5.18;;;;;;;12.47;100.00;100827.69;6028249;23;20499;-73
2023/10/11 04:10:10;;;;;;;6.85;6.32;;;;;;;12.42;100.00;100829.75;6023504;23;20051;-72
2023/10/11 04:12:41;;;;;;;5.40;5.00;;;;;;;12.37;100.00;100828.25;6037258;23;20019;-73
2023/10/11 04:15:24;;;;;;;6.82;5.82;;;;;;;12.30;100.00;100837.41;6027848;23;20370;-73
2023/10/11 04:17:51;;;;;;;10.65;5.72;;;;;;;12.34;100.00;100838.94;6049554;23;20018;-72
2023/10/11 04:20:18;;;;;;;6.15;5.70;;;;;;;12.20;100.00;100828.34;6058001;18;20032;-73
2023/10/11 04:22:51;;;;;;;5.68;5.22;;;;;;;12.07;100.00;100824.75;6088296;23;20009;-73
2023/10/11 04:25:22;;;;;;;6.57;5.93;;;;;;;12.28;100.00;100868.22;6111665;23;20031;-72
2023/10/11 04:27:56;;;;;;;6.88;6.28;;;;;;;10.65;100.00;100596.03;6083386;23;20247;-73
2023/10/11 04:30:41;;;;;;;7.57;5.97;;;;;;;12.27;100.00;100869.19;6054408;23;20404;-72
2023/10/11 04:33:12;;;;;;;7.18;5.93;;;;;;;12.15;100.00;100854.09;6078567;23;20029;-72
2023/10/11 04:35:42;;;;;;;7.03;6.13;;;;;;;12.20;100.00;100877.50;6082452;23;20257;-73
2023/10/11 04:38:13;;;;;;;5.65;5.15;;;;;;;11.97;100.00;100851.56;6092097;23;20174;-72
2023/10/11 04:43:11;;;;;;;7.88;5.60;;;;;;;12.20;100.00;100891.50;6106838;23;20121;-72
2023/10/11 04:45:44;;;;;;;6.93;5.90;;;;;;;12.06;100.00;100870.38;6106661;23;20184;-73
2023/10/11 04:48:15;;;;;;;7.47;5.45;;;;;;;11.77;100.00;100818.44;6071726;23;20093;-73
2023/10/11 04:50:47;;;;;;;5.78;5.35;;;;;;;12.20;100.00;100895.94;6101926;23;20237;-72
2023/10/11 04:53:18;;;;;;;6.03;5.45;;;;;;;11.60;100.00;100788.75;6105362;23;20073;-73
2023/10/11 04:55:59;;;;;;;5.13;4.78;;;;;;;12.12;100.00;100884.03;6086291;23;20035;-74
2023/10/11 04:58:49;;;;;;;13.45;5.78;;;;;;;11.87;100.00;100852.13;6102510;23;20438;-73
2023/10/11 05:01:22;;;;;;;5.55;5.05;;;;;;;11.83;100.00;100863.75;6103961;23;20257;-73
2023/10/11 05:03:58;;;;;;;5.93;5.53;;;;;;;12.18;100.00;100922.31;6064319;23;20253;-73
2023/10/11 05:06:39;;;;;;;5.60;5.20;;;;;;;11.90;100.00;100878.28;6078792;23;20026;-72
2023/10/11 05:09:15;;;;;;;5.72;5.32;;;;;;;12.14;100.00;100920.78;6074038;23;20403;-73
2023/10/11 05:11:49;;;;;;;5.88;5.43;;;;;;;12.12;100.00;100922.66;6084453;23;20278;-73
2023/10/11 05:14:29;;;;;;;5.50;5.20;;;;;;;12.10;100.00;100924.53;6078151;23;20013;-71
2023/10/11 05:16:59;;;;;;;5.63;5.22;;;;;;;12.11;100.00;100920.97;6079493;23;20038;-72
2023/10/11 05:19:27;;;;;;;5.53;5.18;;;;;;;11.95;100.00;100903.38;6108026;23;20020;-72
2023/10/11 05:21:55;;;;;;;7.72;7.03;;;;;;;12.10;100.00;100904.31;6102125;23;20037;-72
2023/10/11 05:32:50;;;;;;;6.05;5.53;;;;;;;12.26;100.00;100893.78;6100726;23;20017;-72
2023/10/11 05:51:43;;;;;;;5.50;5.10;;;;;;;12.24;100.00;100877.25;6103298;23;20029;-72
2023/10/11 05:54:11;;;;;;;5.72;5.32;;;;;;;11.97;100.00;100827.88;6065947;23;20181;-71
2023/10/11 05:56:45;;;;;;;5.28;4.97;;;;;;;12.28;100.00;100870.88;6098711;23;20535;-72
2023/10/11 05:59:14;;;;;;;6.40;5.90;;;;;;;12.05;100.00;100829.25;6104331;23;20103;-72
2023/10/11 06:01:52;;;;;;;5.57;5.18;;;;;;;12.19;100.00;100839.84;6103574;23;20366;-72
2023/10/11 06:04:23;;;;;;;6.10;5.35;;;;;;;12.20;100.00;100824.88;6104548;23;20302;-71
2023/10/11 06:06:57;;;;;;;5.95;4.93;;;;;;;12.57;100.00;100860.47;6044681;23;20022;-72
2023/10/11 06:09:30;;;;;;;5.63;5.10;;;;;;;12.66;100.00;100854.66;6069958;23;20594;-73
2023/10/11 06:11:57;;;;;;;;;;;;;;;12.79;100.00;100844.28;6104375;23;20056;-72
2023/10/11 06:14:24;;;;;;;6.38;5.78;;;;;;;12.84;100.00;100838.72;6083320;23;19912;-72
2023/10/11 06:16:57;;;;;;;8.73;5.47;;;;;;;12.91;100.00;100840.03;6077566;23;20030;-72
2023/10/11 06:19:28;;;;;;;6.53;5.90;;;;;;;12.86;100.00;100808.72;6106494;23;20023;-72
2023/10/11 06:21:56;;;;;;;11.10;6.97;;;;;;;12.75;100.00;100769.84;6077839;23;20147;-72
2023/10/11 06:24:24;;;;;;;6.05;5.35;;;;;;;13.13;100.00;100806.19;6102554;23;20174;-71
2023/10/11 06:29:24;;;;;;;6.63;5.97;;;;;;;13.07;100.00;100743.34;6107805;23;20092;-73
2023/10/11 06:31:53;;;;;;;7.32;5.57;;;;;;;13.34;100.00;100755.75;6108717;23;20010;-73
2023/10/11 06:34:35;;;;;;;5.85;5.35;;;;;;;13.24;100.00;100713.28;6105458;23;20037;-74
2023/10/11 06:37:02;;;;;;;6.63;5.32;;;;;;;13.60;100.00;100740.94;6077553;23;20499;-73
2023/10/11 06:42:14;;;;;;;8.68;5.60;;;;;;;13.83;100.00;100726.25;6098235;23;21166;-74
2023/10/11 06:44:40;;;;;;;;;;;;;;;13.91;100.00;100713.41;6099061;23;20025;-74
2023/10/11 06:47:10;;;;;;;7.13;6.22;;;;;;;13.99;100.00;100701.50;6095044;23;19915;-74
2023/10/11 06:49:40;;;;;;;8.10;5.30;;;;;;;14.08;100.00;100680.63;6111056;23;20036;-72
2023/10/11 06:52:07;;;;;;;6.68;6.18;;;;;;;14.10;100.00;100656.75;6075893;23;20166;-73
2023/10/11 06:54:34;;;;;;;6.45;5.95;;;;;;;14.34;100.00;100675.38;6101779;23;20091;-73
2023/10/11 06:57:01;;;;;;;5.30;5.00;;;;;;;14.16;100.00;100624.69;6103570;23;20091;-72
2023/10/11 06:59:28;;;;;;;5.65;5.15;;;;;;;14.30;100.00;100623.72;6079702;23;20025;-73
2023/10/11 07:01:54;;;;;;;7.13;6.50;;;;;;;14.44;100.00;100614.84;6100728;23;20086;-73
2023/10/11 07:04:21;;;;;;;5.65;5.25;;;;;;;14.79;100.00;100628.22;6077755;23;20882;-73
2023/10/11 07:06:48;;;;;;;9.60;5.35;;;;;;;14.56;100.00;100556.75;6083881;23;20022;-73
2023/10/11 07:09:29;;;;;;;5.40;5.10;;;;;;;14.74;100.00;100596.88;6077163;23;20032;-74
2023/10/11 07:14:41;;;;;;;12.25;5.88;;;;;;;15.22;98.85;100626.97;6108216;23;20029;-73
2023/10/11 07:17:08;;;;;;;9.07;6.28;;;;;;;14.66;98.11;100519.97;6109259;23;20104;-73
2023/10/11 07:19:36;;;;;;;6.00;5.40;;;;;;;15.22;97.67;100592.59;6099397;23;20037;-73
2023/10/11 07:22:04;;;;;;;8.52;6.22;;;;;;;15.45;97.77;100620.81;6103304;23;20033;-73
2023/10/11 07:27:07;;;;;;;6.38;5.88;;;;;;;14.73;95.90;100454.31;6085578;23;20101;-73
2023/10/11 07:29:42;;;;;;;5.80;5.28;;;;;;;15.27;94.08;100504.03;6082255;23;20018;-72
2023/10/11 07:32:15;;;;;;;6.63;5.97;;;;;;;15.63;92.42;100517.25;6109304;23;20067;-73
2023/10/11 07:34:42;;;;;;;7.05;6.05;;;;;;;15.67;92.03;100500.19;6107578;23;20041;-74
2023/10/11 07:37:11;;;;;;;6.50;6.10;;;;;;;16.12;92.22;100566.44;6097795;23;20025;-73
2023/10/11 07:39:40;;;;;;;6.47;5.63;;;;;;;15.84;90.99;100489.19;6107928;23;20029;-73
2023/10/11 07:42:08;;;;;;;6.03;5.55;;;;;;;15.99;89.67;100491.59;6053109;23;20534;-73
2023/10/11 07:44:36;;;;;;;8.32;5.38;;;;;;;16.52;89.20;100542.97;6100264;23;20021;-73
2023/10/11 07:47:15;;;;;;;6.38;5.50;;;;;;;16.66;87.71;100538.38;6110540;23;20259;-73
2023/10/11 07:49:42;;;;;;;5.95;5.55;;;;;;;16.64;87.02;100500.56;6109332;23;20025;-74
2023/10/11 07:52:13;;;;;;;9.23;6.75;;;;;;;16.93;86.44;100511.44;6100076;23;20042;-72
2023/10/11 07:54:40;;;;;;;7.55;5.70;;;;;;;16.41;86.40;100433.53;6104132;23;20029;-73
2023/10/11 07:57:14;;;;;;;6.15;5.57;;;;;;;17.17;85.76;100521.00;6101443;23;20045;-73
2023/10/11 07:59:45;;;;;;;6.85;6.18;;;;;;;17.12;84.59;100479.81;6070369;23;20523;-73
2023/10/11 08:02:29;;;;;;;6.95;6.35;;;;;;;17.28;85.96;100547.47;6103336;23;20110;-74
2023/10/11 08:04:57;;;;;;;6.25;5.75;;;;;;;17.30;84.71;100489.84;6057829;23;20026;-74
2023/10/11 08:07:23;;;;;;;6.45;5.90;;;;;;;17.37;82.60;100429.16;6102869;23;21059;-73
2023/10/11 08:09:52;;;;;;;6.50;5.90;;;;;;;17.45;81.85;100430.19;6104837;23;20514;-72
2023/10/11 08:12:23;;;;;;;7.70;6.10;;;;;;;17.79;81.81;100482.19;6085700;23;20030;-74
2023/10/11 08:14:53;;;;;;;6.97;6.28;;;;;;;17.83;81.91;100491.56;6109222;23;20025;-73
2023/10/11 08:17:21;;;;;;;7.65;6.22;;;;;;;17.97;80.95;100496.56;6108805;23;20229;-73
2023/10/11 08:19:53;;;;;;;7.78;6.80;;;;;;;18.04;80.94;100487.09;6112848;23;20404;-71
2023/10/11 08:22:22;;;;;;;6.80;6.13;;;;;;;17.84;79.76;100398.56;6108527;23;20017;-72
2023/10/11 08:24:51;;;;;;;6.13;5.72;;;;;;;17.75;79.59;100394.00;6116962;23;20028;-72
2023/10/11 08:30:17;;;;;;;7.00;6.55;;;;;;;18.32;78.80;100461.59;6072677;23;20202;-71
2023/10/11 08:32:46;;;;;;;6.40;5.90;;;;;;;17.55;77.88;100305.53;6109266;23;20027;-73
2023/10/11 08:35:16;;;;;;;6.25;5.75;;;;;;;18.66;76.77;100450.63;6109700;23;20092;-72
2023/10/11 08:37:44;;;;;;;7.25;5.80;;;;;;;18.33;75.80;100364.97;6086046;23;20082;-71
2023/10/11 08:40:21;;;;;;;8.05;6.43;;;;;;;18.34;76.30;100390.56;6053886;23;20028;-74
2023/10/11 08:42:51;;;;;;;7.47;5.88;;;;;;;18.97;76.45;100493.06;6111116;23;20168;-72
2023/10/11 08:45:28;;;;;;;7.32;6.35;;;;;;;18.93;76.07;100465.91;6088789;23;20037;-72
2023/10/11 08:47:57;;;;;;;7.53;6.93;;;;;;;19.22;75.69;100490.81;6105276;23;20025;-72
2023/10/11 08:50:31;;;;;;;6.82;6.25;;;;;;;19.47;74.40;100478.75;6104005;23;20065;-72
2023/10/11 08:52:58;;;;;;;6.28;5.72;;;;;;;19.24;72.53;100375.25;6087288;23;20160;-72
2023/10/11 08:55:25;;;;;;;6.28;5.82;;;;;;;19.41;71.21;100400.31;6053913;23;20033;-72
2023/10/11 08:57:53;;;;;;;6.82;6.32;;;;;;;19.28;70.66;100354.53;6054567;23;20029;-73
2023/10/11 09:00:29;;;;;;;7.25;6.57;;;;;;;19.85;69.43;100389.09;6080737;23;20365;-72
2023/10/11 09:02:58;;;;;;;5.95;5.55;;;;;;;19.98;70.03;100431.38;6103387;23;20042;-73
2023/10/11 09:05:42;;;;;;;8.98;6.63;;;;;;;20.04;70.09;100444.09;6099844;23;20118;-72
2023/10/11 09:08:32;;;;;;;6.45;5.95;;;;;;;19.98;69.57;100389.56;6101797;23;20010;-72
2023/10/11 09:11:06;;;;;;;6.40;5.90;;;;;;;20.15;69.51;100427.91;6078868;23;20187;-73
2023/10/11 09:13:36;;;;;;;11.70;7.10;;;;;;;19.92;68.97;100382.19;6093805;23;20087;-72
2023/10/11 09:16:12;;;;;;;8.32;7.68;;;;;;;20.33;69.06;100458.09;6076948;23;20270;-70
2023/10/11 09:18:39;;;;;;;6.13;5.60;;;;;;;20.38;68.02;100384.84;6046617;23;20140;-71
2023/10/11 09:21:15;;;;;;;6.40;5.90;;;;;;;20.38;66.25;100326.22;6097981;23;20038;-72
2023/10/11 09:23:51;;;;;;;6.75;6.15;;;;;;;20.44;66.26;100349.59;6084298;23;20452;-71
2023/10/11 09:26:32;;;;;;;10.90;6.40;;;;;;;20.68;66.43;100359.66;6060042;23;20643;-71
2023/10/11 09:29:07;;;;;;;6.43;5.82;;;;;;;20.67;64.23;100307.34;6053804;23;20085;-73
2023/10/11 09:31:35;;;;;;;6.47;6.00;;;;;;;20.86;63.31;100299.13;6099280;23;20011;-73
2023/10/11 09:34:07;;;;;;;7.47;6.97;;;;;;;20.11;63.40;100194.75;6098204;23;20030;-72
2023/10/11 09:36:34;;;;;;;6.22;5.82;;;;;;;20.97;61.39;100242.00;6102234;23;20846;-74
2023/10/11 09:39:03;;;;;;;6.13;5.82;;;;;;;20.79;63.11;100298.09;6103580;23;20086;-72
2023/10/11 09:41:38;;;;;;;6.45;6.03;;;;;;;20.98;62.09;100264.19;6070789;23;20021;-72
2023/10/11 09:44:06;;;;;;;7.75;7.10;;;;;;;21.32;60.42;100267.69;6081749;23;20084;-72
2023/10/11 09:46:34;;;;;;;6.70;6.10;;;;;;;21.01;60.08;100231.88;6078899;23;20069;-72
2023/10/11 09:49:12;;;;;;;6.72;6.15;;;;;;;21.25;61.75;100360.06;6106112;23;20082;-76
2023/10/11 09:51:43;;;;;;;7.38;6.30;;;;;;;20.94;60.19;100257.50;6071428;23;20033;-71
2023/10/11 09:54:12;;;;;;;6.68;6.28;;;;;;;20.86;60.65;100287.63;6050414;23;20049;-72
2023/10/11 09:56:56;;;;;;;6.40;5.90;;;;;;;21.41;58.93;100307.75;6093110;23;20046;-72
2023/10/11 09:59:59;;;;;;;6.55;6.07;;;;;;;21.49;60.54;100418.16;6074427;23;20082;-72
2023/10/11 10:02:37;;;;;;;7.03;6.40;;;;;;;21.60;59.05;100379.63;6049844;23;20503;-72
2023/10/11 10:05:07;;;;;;;6.45;5.95;;;;;;;21.74;59.31;100391.56;6092558;23;20097;-72
2023/10/11 10:07:45;;;;;;;6.82;6.22;;;;;;;21.67;59.03;100375.34;6076051;23;20060;-72
2023/10/11 10:10:16;;;;;;;6.53;6.03;;;;;;;22.04;59.42;100454.28;6090420;23;20022;-72
2023/10/11 10:12:59;;;;;;;5.70;5.30;;;;;;;21.95;57.24;100334.19;6077959;23;20073;-72
2023/10/11 10:15:36;;;;;;;6.55;6.15;;;;;;;21.64;57.48;100282.19;6085209;23;20014;-72
2023/10/11 10:18:03;;;;;;;7.32;6.72;;;;;;;22.06;57.93;100360.59;6104010;23;20429;-72
2023/10/11 10:20:33;;;;;;;6.60;5.75;;;;;;;22.17;57.82;100380.84;6088485;23;20049;-73
2023/10/11 10:23:14;;;;;;;6.30;5.80;;;;;;;22.30;57.43;100382.06;6096875;23;20085;-72
2023/10/11 10:25:47;;;;;;;6.27;5.80;;;;;;;22.32;57.94;100453.28;6078458;23;20021;-72
2023/10/11 10:28:34;;;;;;;;;;;;;;;22.46;56.84;100389.28;6099388;23;20035;-74
2023/10/11 10:31:11;;;;;;;6.45;5.95;;;;;;;22.49;55.86;100335.47;6099782;23;20196;-72
2023/10/11 10:33:39;;;;;;;6.60;6.10;;;;;;;22.57;56.75;100409.53;6054029;23;20089;-72
2023/10/11 10:36:21;;;;;;;7.32;6.82;;;;;;;22.53;55.87;100370.72;6097183;23;20058;-72
2023/10/11 10:39:01;;;;;;;6.50;6.10;;;;;;;22.50;54.26;100337.13;6100717;23;20276;-72
2023/10/11 10:41:30;;;;;;;6.75;6.25;;;;;;;22.45;56.12;100390.31;6076365;23;20504;-73
2023/10/11 10:44:19;;;;;;;11.43;6.80;;;;;;;22.77;54.66;100399.38;6074062;23;20497;-73
2023/10/11 10:46:49;;;;;;;6.40;6.00;;;;;;;22.61;55.49;100388.63;6103940;23;20642;-72
2023/10/11 10:49:17;;;;;;;6.43;6.00;;;;;;;22.91;56.58;100483.47;6082531;23;20702;-71
2023/10/11 10:51:47;;;;;;;6.05;5.65;;;;;;;22.80;55.72;100455.19;6050734;23;20116;-74
2023/10/11 10:54:17;;;;;;;6.97;6.22;;;;;;;23.11;55.54;100484.00;6101075;23;20523;-71
2023/10/11 10:56:48;;;;;;;7.07;6.57;;;;;;;22.72;54.99;100374.09;6049141;23;20335;-72
2023/10/11 10:59:20;;;;;;;8.05;6.20;;;;;;;22.62;55.57;100404.50;6077016;23;20043;-72
2023/10/11 11:01:50;;;;;;;7.70;6.15;;;;;;;22.94;55.37;100396.69;6087104;23;20213;-75
2023/10/11 11:04:22;;;;;;;6.78;6.25;;;;;;;23.12;54.66;100429.47;6100912;23;20029;-73
2023/10/11 11:06:52;;;;;;;6.63;6.03;;;;;;;22.98;55.22;100420.25;6082488;23;20021;-71
2023/10/11 11:09:19;;;;;;;7.20;6.22;;;;;;;23.08;55.16;100487.88;6101642;23;20158;-72
2023/10/11 11:11:53;;;;;;;6.10;5.80;;;;;;;23.24;54.77;100464.78;6059986;23;20091;-72
2023/10/11 11:14:23;;;;;;;7.55;6.95;;;;;;;23.28;54.57;100468.78;6102557;23;20035;-72
2023/10/11 11:16:58;;;;;;;6.82;6.32;;;;;;;23.21;56.01;100499.91;6080952;23;20033;-72
2023/10/11 11:19:34;;;;;;;6.35;5.95;;;;;;;23.12;54.81;100428.66;6104467;23;20017;-72
2023/10/11 11:22:19;;;;;;;8.32;7.47;;;;;;;22.85;54.40;100399.34;6079885;23;20113;-74
2023/10/11 11:24:52;;;;;;;6.15;5.75;;;;;;;22.61;54.83;100399.31;6072425;23;20026;-75
2023/10/11 11:27:25;;;;;;;6.75;6.22;;;;;;;22.89;54.09;100422.09;6073708;23;20033;-74
2023/10/11 11:30:02;;;;;;;7.82;6.57;;;;;;;22.90;54.82;100471.94;6106018;23;20030;-72
2023/10/11 11:32:39;;;;;;;7.55;6.57;;;;;;;22.70;55.72;100476.75;6096516;23;20312;-71
2023/10/11 11:35:10;;;;;;;7.25;6.65;;;;;;;22.48;55.25;100407.84;6104312;23;20500;-72
2023/10/11 11:37:40;;;;;;;6.35;5.85;;;;;;;22.90;55.57;100481.81;6104465;23;20029;-74
2023/10/11 11:40:24;;;;;;;7.82;7.18;;;;;;;23.05;55.97;100522.16;6102368;23;20334;-72
2023/10/11 11:42:50;;;;;;;6.60;6.10;;;;;;;23.05;56.47;100540.88;6096271;23;20037;-72
2023/10/11 11:45:19;;;;;;;7.13;6.28;;;;;;;23.12;55.58;100469.63;6104398;23;20082;-73
2023/10/11 11:47:56;;;;;;;6.60;6.00;;;;;;;;;;6083093;23;20592;-74
2023/10/11 11:50:25;;;;;;;6.75;6.20;;;;;;;23.09;56.22;100472.63;6076244;23;20026;-72
2023/10/11 11:52:51;;;;;;;6.43;6.03;;;;;;;22.88;52.50;100285.78;6102519;23;20053;-72
2023/10/11 11:55:22;;;;;;;7.10;6.60;;;;;;;23.10;53.56;100375.28;6105272;23;20017;-71
2023/10/11 11:57:50;;;;;;;7.00;6.32;;;;;;;22.72;53.48;100304.56;6103140;23;20521;-72
2023/10/11 12:03:05;;;;;;;6.68;6.18;;;;;;;23.43;53.59;100444.81;6054880;23;20041;-73
2023/10/11 12:05:41;;;;;;;6.30;5.90;;;;;;;23.54;53.71;100441.81;6078838;23;20026;-72
2023/10/11 12:08:20;;;;;;;6.75;6.20;;;;;;;23.49;52.16;100358.44;6073057;23;20519;-72
2023/10/11 12:10:50;;;;;;;7.55;5.80;;;;;;;23.50;53.00;100427.09;6102224;23;20038;-73
2023/10/11 12:13:23;;;;;;;6.53;5.93;;;;;;;23.70;53.55;100454.31;6081552;23;20544;-73
2023/10/11 12:15:54;;;;;;;6.57;6.07;;;;;;;23.62;53.31;100435.59;6101897;23;20631;-73
2023/10/11 12:18:34;;;;;;;7.03;6.40;;;;;;;23.10;53.62;100327.91;6082605;23;20022;-72
2023/10/11 12:21:10;;;;;;;6.60;6.10;;;;;;;23.47;53.32;100414.00;6099589;23;20041;-72
2023/10/11 12:23:46;;;;;;;6.72;6.25;;;;;;;23.96;53.71;100472.03;6107833;23;20053;-73
2023/10/11 12:26:16;;;;;;;7.00;6.50;;;;;;;23.85;53.28;100441.06;6065838;23;20629;-74
2023/10/11 12:28:47;;;;;;;6.53;6.00;;;;;;;24.09;52.77;100461.56;6105854;23;20112;-74
2023/10/11 12:31:14;;;;;;;6.70;6.15;;;;;;;23.69;54.05;100440.09;6084900;23;20033;-72
2023/10/11 12:33:42;;;;;;;6.50;6.03;;;;;;;23.30;52.47;100306.13;6094451;23;20433;-72
2023/10/11 12:36:08;;;;;;;6.47;6.03;;;;;;;23.81;52.90;100410.25;6080766;23;20269;-73
2023/10/11 12:38:36;;;;;;;6.80;6.20;;;;;;;24.04;51.52;100384.38;6093586;23;20022;-74
2023/10/11 12:41:04;;;;;;;6.68;5.82;;;;;;;23.72;52.26;100357.69;6107158;23;20021;-71